Crows Landing, California
Current Conditions -  °F | °C
As of 6:53 AM on Thursday 30 Oct 2014 (Local Time) from KMOD Reporting Station
Clear Clear  
Wind Chill: 50°   Ceiling: Unl
Heat Index: 50°   Visibility: 9mi
Dew Point: 45°   Wind: 6mph
Humidity: 83%   Direction: 120°ESE
Pressure: 29.95"   Gusts: NA
Location:  37.39°N, 121.07°W
Report Text: KMOD 301353Z 12005KT 9SM CLR 10/07 A2995 RMK AO2 SLP141 T01000072
Loading
Personal Weather Stations






























Interactive Weather Map
Tropical Storm Tracking
New forecast layout! Learn more

10-Day Weather Forecast

Advertisements
Track Severe Weather on mobile